sensor_id;sensor_type;location;lat;lon;timestamp;P1;durP1;ratioP1;P2;durP2;ratioP2
57842;SDS011;43673;51.058;3.734;2022-10-01T03:54:47;2.50;;;2.30;;
57842;SDS011;43673;51.058;3.734;2022-10-01T03:57:39;3.67;;;2.10;;
57842;SDS011;43673;51.058;3.734;2022-10-01T04:00:05;2.20;;;2.00;;
57842;SDS011;43673;51.058;3.734;2022-10-01T04:10:17;2.95;;;2.47;;
57842;SDS011;43673;51.058;3.734;2022-10-01T04:15:09;3.28;;;1.90;;
57842;SDS011;43673;51.058;3.734;2022-10-01T05:10:22;5.03;;;2.70;;
57842;SDS011;43673;51.058;3.734;2022-10-01T05:12:50;4.00;;;2.90;;
57842;SDS011;43673;51.058;3.734;2022-10-01T05:15:36;5.53;;;3.20;;
57842;SDS011;43673;51.058;3.734;2022-10-01T05:20:41;10.27;;;3.92;;
57842;SDS011;43673;51.058;3.734;2022-10-01T05:23:07;6.88;;;3.30;;
57842;SDS011;43673;51.058;3.734;2022-10-01T05:28:08;5.80;;;2.70;;
57842;SDS011;43673;51.058;3.734;2022-10-01T05:30:33;5.90;;;3.20;;
57842;SDS011;43673;51.058;3.734;2022-10-01T05:33:00;4.45;;;2.78;;
57842;SDS011;43673;51.058;3.734;2022-10-01T05:35:28;8.30;;;3.75;;
57842;SDS011;43673;51.058;3.734;2022-10-01T05:37:55;9.18;;;3.75;;
57842;SDS011;43673;51.058;3.734;2022-10-01T05:40:21;5.63;;;4.28;;
57842;SDS011;43673;51.058;3.734;2022-10-01T05:42:53;10.30;;;3.70;;
57842;SDS011;43673;51.058;3.734;2022-10-01T05:45:20;5.47;;;3.58;;
57842;SDS011;43673;51.058;3.734;2022-10-01T05:47:47;7.70;;;3.72;;
57842;SDS011;43673;51.058;3.734;2022-10-01T05:50:15;6.38;;;3.70;;
57842;SDS011;43673;51.058;3.734;2022-10-01T05:52:50;8.63;;;4.47;;
57842;SDS011;43673;51.058;3.734;2022-10-01T05:55:18;14.32;;;4.53;;
57842;SDS011;43673;51.058;3.734;2022-10-01T05:57:44;8.50;;;4.10;;
57842;SDS011;43673;51.058;3.734;2022-10-01T06:00:16;6.53;;;3.97;;
57842;SDS011;43673;51.058;3.734;2022-10-01T06:02:43;10.75;;;4.07;;
57842;SDS011;43673;51.058;3.734;2022-10-01T06:05:14;9.25;;;5.22;;
57842;SDS011;43673;51.058;3.734;2022-10-01T06:07:40;14.43;;;4.50;;
57842;SDS011;43673;51.058;3.734;2022-10-01T06:10:05;10.40;;;5.30;;
57842;SDS011;43673;51.058;3.734;2022-10-01T06:12:31;12.30;;;4.63;;
57842;SDS011;43673;51.058;3.734;2022-10-01T06:14:58;13.45;;;5.03;;
57842;SDS011;43673;51.058;3.734;2022-10-01T06:17:23;12.13;;;5.03;;
57842;SDS011;43673;51.058;3.734;2022-10-01T06:19:49;9.45;;;5.30;;
57842;SDS011;43673;51.058;3.734;2022-10-01T06:22:18;13.63;;;5.47;;
57842;SDS011;43673;51.058;3.734;2022-10-01T06:24:43;13.18;;;5.38;;
57842;SDS011;43673;51.058;3.734;2022-10-01T06:27:09;13.75;;;5.30;;
57842;SDS011;43673;51.058;3.734;2022-10-01T06:29:35;12.43;;;5.67;;
57842;SDS011;43673;51.058;3.734;2022-10-01T06:32:01;12.15;;;5.20;;
57842;SDS011;43673;51.058;3.734;2022-10-01T06:34:27;13.85;;;5.40;;
57842;SDS011;43673;51.058;3.734;2022-10-01T06:36:53;10.90;;;5.50;;
57842;SDS011;43673;51.058;3.734;2022-10-01T06:39:18;11.27;;;5.00;;
57842;SDS011;43673;51.058;3.734;2022-10-01T06:41:46;9.07;;;4.47;;
57842;SDS011;43673;51.058;3.734;2022-10-01T06:44:11;15.80;;;5.57;;
57842;SDS011;43673;51.058;3.734;2022-10-01T06:46:37;11.00;;;4.10;;
57842;SDS011;43673;51.058;3.734;2022-10-01T06:49:03;11.35;;;4.38;;
57842;SDS011;43673;51.058;3.734;2022-10-01T06:51:28;13.27;;;4.40;;
57842;SDS011;43673;51.058;3.734;2022-10-01T06:54:14;22.23;;;4.40;;
57842;SDS011;43673;51.058;3.734;2022-10-01T06:56:42;11.20;;;4.10;;
57842;SDS011;43673;51.058;3.734;2022-10-01T06:59:08;14.75;;;3.85;;
57842;SDS011;43673;51.058;3.734;2022-10-01T07:01:35;15.00;;;4.03;;
57842;SDS011;43673;51.058;3.734;2022-10-01T07:04:01;12.63;;;4.70;;
57842;SDS011;43673;51.058;3.734;2022-10-01T07:06:34;14.05;;;4.70;;
57842;SDS011;43673;51.058;3.734;2022-10-01T07:09:38;12.73;;;5.47;;
57842;SDS011;43673;51.058;3.734;2022-10-01T07:12:04;16.20;;;5.95;;
57842;SDS011;43673;51.058;3.734;2022-10-01T07:14:30;14.30;;;6.47;;
57842;SDS011;43673;51.058;3.734;2022-10-01T07:16:56;11.80;;;4.25;;
57842;SDS011;43673;51.058;3.734;2022-10-01T07:19:21;17.40;;;5.18;;
57842;SDS011;43673;51.058;3.734;2022-10-01T07:21:47;18.98;;;5.25;;
57842;SDS011;43673;51.058;3.734;2022-10-01T07:24:13;12.73;;;5.57;;
57842;SDS011;43673;51.058;3.734;2022-10-01T07:26:38;16.52;;;5.22;;
57842;SDS011;43673;51.058;3.734;2022-10-01T07:29:04;14.60;;;4.45;;
57842;SDS011;43673;51.058;3.734;2022-10-01T07:31:30;13.63;;;4.85;;
57842;SDS011;43673;51.058;3.734;2022-10-01T07:33:56;13.43;;;4.85;;
57842;SDS011;43673;51.058;3.734;2022-10-01T07:36:22;12.40;;;3.85;;
57842;SDS011;43673;51.058;3.734;2022-10-01T07:38:48;10.43;;;3.65;;
57842;SDS011;43673;51.058;3.734;2022-10-01T07:41:15;12.60;;;3.65;;
57842;SDS011;43673;51.058;3.734;2022-10-01T07:43:41;13.65;;;4.88;;
57842;SDS011;43673;51.058;3.734;2022-10-01T07:46:07;11.02;;;3.50;;
57842;SDS011;43673;51.058;3.734;2022-10-01T07:48:34;14.95;;;4.32;;
57842;SDS011;43673;51.058;3.734;2022-10-01T07:51:00;16.35;;;4.57;;
57842;SDS011;43673;51.058;3.734;2022-10-01T07:53:25;16.08;;;5.32;;
57842;SDS011;43673;51.058;3.734;2022-10-01T07:55:52;15.02;;;5.90;;
57842;SDS011;43673;51.058;3.734;2022-10-01T07:58:17;10.13;;;4.45;;
57842;SDS011;43673;51.058;3.734;2022-10-01T08:00:47;19.17;;;5.20;;
57842;SDS011;43673;51.058;3.734;2022-10-01T08:03:13;9.85;;;4.20;;
57842;SDS011;43673;51.058;3.734;2022-10-01T08:05:39;12.55;;;4.65;;
57842;SDS011;43673;51.058;3.734;2022-10-01T08:08:07;21.05;;;5.82;;
57842;SDS011;43673;51.058;3.734;2022-10-01T08:10:34;15.75;;;4.43;;
57842;SDS011;43673;51.058;3.734;2022-10-01T08:13:03;13.75;;;4.30;;
57842;SDS011;43673;51.058;3.734;2022-10-01T08:15:38;17.40;;;5.00;;
57842;SDS011;43673;51.058;3.734;2022-10-01T08:18:05;11.88;;;4.38;;
57842;SDS011;43673;51.058;3.734;2022-10-01T08:20:31;12.77;;;4.32;;
57842;SDS011;43673;51.058;3.734;2022-10-01T08:23:02;15.02;;;4.70;;
57842;SDS011;43673;51.058;3.734;2022-10-01T08:25:28;17.10;;;5.38;;
57842;SDS011;43673;51.058;3.734;2022-10-01T08:27:54;17.00;;;4.80;;
57842;SDS011;43673;51.058;3.734;2022-10-01T08:30:20;15.98;;;4.68;;
57842;SDS011;43673;51.058;3.734;2022-10-01T08:32:45;13.32;;;4.70;;
57842;SDS011;43673;51.058;3.734;2022-10-01T08:35:11;13.20;;;4.20;;
57842;SDS011;43673;51.058;3.734;2022-10-01T08:37:37;16.23;;;4.32;;
57842;SDS011;43673;51.058;3.734;2022-10-01T08:40:02;13.93;;;5.18;;
57842;SDS011;43673;51.058;3.734;2022-10-01T08:42:38;13.90;;;5.32;;
57842;SDS011;43673;51.058;3.734;2022-10-01T08:45:15;15.13;;;5.07;;
57842;SDS011;43673;51.058;3.734;2022-10-01T08:47:48;17.25;;;5.30;;
57842;SDS011;43673;51.058;3.734;2022-10-01T08:53:06;15.85;;;4.53;;
57842;SDS011;43673;51.058;3.734;2022-10-01T08:55:39;13.52;;;4.60;;
57842;SDS011;43673;51.058;3.734;2022-10-01T08:58:06;10.82;;;3.83;;
57842;SDS011;43673;51.058;3.734;2022-10-01T09:00:38;17.25;;;4.82;;
57842;SDS011;43673;51.058;3.734;2022-10-01T09:03:08;19.05;;;4.72;;
57842;SDS011;43673;51.058;3.734;2022-10-01T09:05:46;14.82;;;4.50;;
57842;SDS011;43673;51.058;3.734;2022-10-01T09:11:13;20.63;;;4.70;;
57842;SDS011;43673;51.058;3.734;2022-10-01T09:16:58;11.38;;;3.80;;
57842;SDS011;43673;51.058;3.734;2022-10-01T09:19:51;11.30;;;3.80;;
57842;SDS011;43673;51.058;3.734;2022-10-01T09:23:00;18.33;;;4.47;;
57842;SDS011;43673;51.058;3.734;2022-10-01T09:25:42;14.57;;;3.75;;
57842;SDS011;43673;51.058;3.734;2022-10-01T09:30:53;12.18;;;4.43;;
57842;SDS011;43673;51.058;3.734;2022-10-01T09:33:35;16.65;;;4.68;;
57842;SDS011;43673;51.058;3.734;2022-10-01T09:38:40;14.80;;;5.05;;
57842;SDS011;43673;51.058;3.734;2022-10-01T09:41:08;17.17;;;3.65;;
57842;SDS011;43673;51.058;3.734;2022-10-01T09:43:38;12.95;;;3.33;;
57842;SDS011;43673;51.058;3.734;2022-10-01T09:46:06;11.15;;;4.03;;
57842;SDS011;43673;51.058;3.734;2022-10-01T09:51:24;15.43;;;3.88;;
57842;SDS011;43673;51.058;3.734;2022-10-01T09:56:38;12.05;;;4.53;;
57842;SDS011;43673;51.058;3.734;2022-10-01T09:59:16;10.73;;;3.45;;
57842;SDS011;43673;51.058;3.734;2022-10-01T10:01:57;14.00;;;4.00;;
57842;SDS011;43673;51.058;3.734;2022-10-01T10:04:26;10.80;;;3.35;;
57842;SDS011;43673;51.058;3.734;2022-10-01T10:07:01;12.77;;;4.03;;
57842;SDS011;43673;51.058;3.734;2022-10-01T10:09:30;16.83;;;4.78;;
57842;SDS011;43673;51.058;3.734;2022-10-01T10:11:57;10.52;;;3.28;;
57842;SDS011;43673;51.058;3.734;2022-10-01T10:14:28;11.73;;;3.35;;
57842;SDS011;43673;51.058;3.734;2022-10-01T10:16:57;10.35;;;3.58;;
57842;SDS011;43673;51.058;3.734;2022-10-01T10:19:36;9.60;;;3.47;;
57842;SDS011;43673;51.058;3.734;2022-10-01T10:22:10;9.70;;;3.55;;
57842;SDS011;43673;51.058;3.734;2022-10-01T10:24:37;12.90;;;3.53;;
57842;SDS011;43673;51.058;3.734;2022-10-01T10:27:04;9.77;;;4.00;;
57842;SDS011;43673;51.058;3.734;2022-10-01T10:29:44;8.40;;;3.50;;
57842;SDS011;43673;51.058;3.734;2022-10-01T10:32:14;12.32;;;4.15;;
57842;SDS011;43673;51.058;3.734;2022-10-01T10:34:47;11.15;;;3.83;;
57842;SDS011;43673;51.058;3.734;2022-10-01T10:37:15;11.05;;;4.07;;
57842;SDS011;43673;51.058;3.734;2022-10-01T10:39:47;11.45;;;3.42;;
57842;SDS011;43673;51.058;3.734;2022-10-01T10:42:18;12.32;;;3.95;;
57842;SDS011;43673;51.058;3.734;2022-10-01T10:44:47;11.52;;;4.07;;
57842;SDS011;43673;51.058;3.734;2022-10-01T10:47:15;11.95;;;4.38;;
57842;SDS011;43673;51.058;3.734;2022-10-01T10:49:44;13.47;;;3.70;;
57842;SDS011;43673;51.058;3.734;2022-10-01T10:52:18;10.30;;;3.65;;
57842;SDS011;43673;51.058;3.734;2022-10-01T10:54:55;12.70;;;3.55;;
57842;SDS011;43673;51.058;3.734;2022-10-01T10:57:26;15.18;;;3.97;;
57842;SDS011;43673;51.058;3.734;2022-10-01T11:02:26;13.00;;;4.38;;
57842;SDS011;43673;51.058;3.734;2022-10-01T11:04:54;14.50;;;6.28;;
57842;SDS011;43673;51.058;3.734;2022-10-01T11:07:41;11.45;;;3.88;;
57842;SDS011;43673;51.058;3.734;2022-10-01T11:10:23;13.80;;;4.13;;
57842;SDS011;43673;51.058;3.734;2022-10-01T11:21:15;9.00;;;3.53;;
57842;SDS011;43673;51.058;3.734;2022-10-01T11:24:04;10.80;;;3.60;;
57842;SDS011;43673;51.058;3.734;2022-10-01T11:26:54;11.63;;;3.25;;
57842;SDS011;43673;51.058;3.734;2022-10-01T11:40:54;12.23;;;4.60;;
57842;SDS011;43673;51.058;3.734;2022-10-01T11:43:49;11.48;;;4.25;;
57842;SDS011;43673;51.058;3.734;2022-10-01T11:46:28;11.52;;;3.65;;
57842;SDS011;43673;51.058;3.734;2022-10-01T11:49:46;13.43;;;4.43;;
57842;SDS011;43673;51.058;3.734;2022-10-01T11:52:17;12.38;;;5.43;;
57842;SDS011;43673;51.058;3.734;2022-10-01T11:54:55;15.80;;;3.25;;
57842;SDS011;43673;51.058;3.734;2022-10-01T11:58:12;9.55;;;3.83;;
57842;SDS011;43673;51.058;3.734;2022-10-01T12:01:10;15.25;;;3.67;;
57842;SDS011;43673;51.058;3.734;2022-10-01T12:08:51;10.05;;;4.60;;
57842;SDS011;43673;51.058;3.734;2022-10-01T12:11:25;11.90;;;3.45;;
57842;SDS011;43673;51.058;3.734;2022-10-01T12:14:12;15.10;;;4.15;;
57842;SDS011;43673;51.058;3.734;2022-10-01T12:16:52;14.55;;;3.35;;
57842;SDS011;43673;51.058;3.734;2022-10-01T12:19:24;11.15;;;3.22;;
57842;SDS011;43673;51.058;3.734;2022-10-01T12:21:55;16.38;;;3.92;;
57842;SDS011;43673;51.058;3.734;2022-10-01T12:24:37;11.52;;;3.20;;
57842;SDS011;43673;51.058;3.734;2022-10-01T12:46:32;10.32;;;3.00;;
57842;SDS011;43673;51.058;3.734;2022-10-01T12:49:38;10.57;;;3.60;;
57842;SDS011;43673;51.058;3.734;2022-10-01T12:55:11;9.75;;;4.30;;
57842;SDS011;43673;51.058;3.734;2022-10-01T13:15:38;11.90;;;3.85;;
57842;SDS011;43673;51.058;3.734;2022-10-01T13:18:17;15.45;;;3.58;;
57842;SDS011;43673;51.058;3.734;2022-10-01T13:20:50;14.18;;;3.95;;
57842;SDS011;43673;51.058;3.734;2022-10-01T13:26:08;10.30;;;3.90;;
57842;SDS011;43673;51.058;3.734;2022-10-01T13:29:02;9.55;;;3.22;;
57842;SDS011;43673;51.058;3.734;2022-10-01T13:34:31;12.35;;;3.00;;
57842;SDS011;43673;51.058;3.734;2022-10-01T13:37:08;12.48;;;4.15;;
57842;SDS011;43673;51.058;3.734;2022-10-01T13:39:35;11.93;;;3.22;;
57842;SDS011;43673;51.058;3.734;2022-10-01T13:42:05;7.63;;;2.40;;
57842;SDS011;43673;51.058;3.734;2022-10-01T13:44:38;11.18;;;3.15;;
57842;SDS011;43673;51.058;3.734;2022-10-01T13:47:05;11.02;;;3.47;;
57842;SDS011;43673;51.058;3.734;2022-10-01T13:49:33;9.50;;;3.72;;
57842;SDS011;43673;51.058;3.734;2022-10-01T13:52:01;9.70;;;3.15;;
57842;SDS011;43673;51.058;3.734;2022-10-01T13:57:35;10.90;;;3.15;;
57842;SDS011;43673;51.058;3.734;2022-10-01T14:02:37;11.48;;;3.88;;
57842;SDS011;43673;51.058;3.734;2022-10-01T14:07:46;12.48;;;2.85;;
57842;SDS011;43673;51.058;3.734;2022-10-01T14:10:14;8.73;;;3.08;;
57842;SDS011;43673;51.058;3.734;2022-10-01T14:12:41;10.10;;;3.90;;
57842;SDS011;43673;51.058;3.734;2022-10-01T14:15:30;6.72;;;2.60;;
57842;SDS011;43673;51.058;3.734;2022-10-01T14:18:22;7.60;;;2.72;;
57842;SDS011;43673;51.058;3.734;2022-10-01T14:26:21;16.15;;;3.47;;
57842;SDS011;43673;51.058;3.734;2022-10-01T14:29:35;9.23;;;3.38;;
57842;SDS011;43673;51.058;3.734;2022-10-01T14:37:59;9.27;;;3.42;;
57842;SDS011;43673;51.058;3.734;2022-10-01T14:40:33;10.40;;;2.92;;
57842;SDS011;43673;51.058;3.734;2022-10-01T14:46:03;8.13;;;3.15;;
57842;SDS011;43673;51.058;3.734;2022-10-01T14:48:31;7.25;;;3.08;;
57842;SDS011;43673;51.058;3.734;2022-10-01T14:51:00;14.80;;;3.15;;
57842;SDS011;43673;51.058;3.734;2022-10-01T14:53:28;5.70;;;2.70;;
57842;SDS011;43673;51.058;3.734;2022-10-01T14:55:57;9.07;;;3.00;;
57842;SDS011;43673;51.058;3.734;2022-10-01T14:58:27;16.88;;;4.07;;
57842;SDS011;43673;51.058;3.734;2022-10-01T15:00:58;13.20;;;3.60;;
57842;SDS011;43673;51.058;3.734;2022-10-01T15:03:24;15.18;;;4.95;;
57842;SDS011;43673;51.058;3.734;2022-10-01T15:05:50;13.82;;;4.38;;
57842;SDS011;43673;51.058;3.734;2022-10-01T15:08:40;11.18;;;3.42;;
57842;SDS011;43673;51.058;3.734;2022-10-01T15:11:10;13.23;;;3.25;;
57842;SDS011;43673;51.058;3.734;2022-10-01T15:13:40;11.13;;;3.58;;
57842;SDS011;43673;51.058;3.734;2022-10-01T15:16:15;12.80;;;3.80;;
57842;SDS011;43673;51.058;3.734;2022-10-01T15:18:46;13.70;;;4.13;;
57842;SDS011;43673;51.058;3.734;2022-10-01T15:21:18;14.48;;;4.00;;
57842;SDS011;43673;51.058;3.734;2022-10-01T15:23:48;9.80;;;3.53;;
57842;SDS011;43673;51.058;3.734;2022-10-01T15:26:17;11.70;;;3.13;;
57842;SDS011;43673;51.058;3.734;2022-10-01T15:28:46;9.75;;;3.80;;
57842;SDS011;43673;51.058;3.734;2022-10-01T15:31:14;12.07;;;3.70;;
57842;SDS011;43673;51.058;3.734;2022-10-01T15:33:41;16.98;;;4.20;;
57842;SDS011;43673;51.058;3.734;2022-10-01T15:36:10;8.75;;;4.15;;
57842;SDS011;43673;51.058;3.734;2022-10-01T15:38:42;18.83;;;4.28;;
57842;SDS011;43673;51.058;3.734;2022-10-01T15:41:15;14.48;;;4.90;;
57842;SDS011;43673;51.058;3.734;2022-10-01T15:43:51;13.07;;;4.40;;
57842;SDS011;43673;51.058;3.734;2022-10-01T15:48:43;10.65;;;4.80;;
57842;SDS011;43673;51.058;3.734;2022-10-01T15:51:14;18.63;;;4.22;;
57842;SDS011;43673;51.058;3.734;2022-10-01T15:53:46;15.30;;;4.38;;
57842;SDS011;43673;51.058;3.734;2022-10-01T15:56:15;14.82;;;4.70;;
57842;SDS011;43673;51.058;3.734;2022-10-01T15:58:48;12.52;;;4.25;;
57842;SDS011;43673;51.058;3.734;2022-10-01T16:01:19;16.85;;;5.60;;
57842;SDS011;43673;51.058;3.734;2022-10-01T16:03:49;10.50;;;3.78;;
57842;SDS011;43673;51.058;3.734;2022-10-01T16:06:21;15.13;;;4.68;;
57842;SDS011;43673;51.058;3.734;2022-10-01T16:11:21;16.48;;;5.97;;
57842;SDS011;43673;51.058;3.734;2022-10-01T16:13:51;21.75;;;6.57;;
57842;SDS011;43673;51.058;3.734;2022-10-01T16:16:47;21.98;;;6.72;;
57842;SDS011;43673;51.058;3.734;2022-10-01T16:24:45;14.65;;;4.72;;
57842;SDS011;43673;51.058;3.734;2022-10-01T16:27:16;16.73;;;6.95;;
57842;SDS011;43673;51.058;3.734;2022-10-01T16:29:58;9.98;;;4.60;;
57842;SDS011;43673;51.058;3.734;2022-10-01T16:32:30;10.95;;;5.43;;
57842;SDS011;43673;51.058;3.734;2022-10-01T16:35:13;14.23;;;5.97;;
57842;SDS011;43673;51.058;3.734;2022-10-01T16:37:39;16.38;;;5.13;;
57842;SDS011;43673;51.058;3.734;2022-10-01T16:40:05;16.20;;;5.20;;
57842;SDS011;43673;51.058;3.734;2022-10-01T16:42:31;11.63;;;5.20;;
57842;SDS011;43673;51.058;3.734;2022-10-01T16:45:01;17.52;;;5.90;;
57842;SDS011;43673;51.058;3.734;2022-10-01T16:47:28;18.40;;;5.68;;
57842;SDS011;43673;51.058;3.734;2022-10-01T16:49:53;11.65;;;4.88;;
57842;SDS011;43673;51.058;3.734;2022-10-01T16:52:19;14.25;;;5.60;;
57842;SDS011;43673;51.058;3.734;2022-10-01T16:54:45;13.50;;;5.25;;
57842;SDS011;43673;51.058;3.734;2022-10-01T16:57:12;13.23;;;4.97;;
57842;SDS011;43673;51.058;3.734;2022-10-01T16:59:40;16.52;;;6.18;;
57842;SDS011;43673;51.058;3.734;2022-10-01T17:02:13;26.42;;;7.07;;
57842;SDS011;43673;51.058;3.734;2022-10-01T17:04:39;18.73;;;6.03;;
57842;SDS011;43673;51.058;3.734;2022-10-01T17:07:05;14.32;;;4.45;;
57842;SDS011;43673;51.058;3.734;2022-10-01T17:09:31;21.83;;;6.78;;
57842;SDS011;43673;51.058;3.734;2022-10-01T17:11:57;23.52;;;5.50;;
57842;SDS011;43673;51.058;3.734;2022-10-01T17:14:23;18.58;;;6.35;;
57842;SDS011;43673;51.058;3.734;2022-10-01T17:16:49;20.17;;;5.85;;
57842;SDS011;43673;51.058;3.734;2022-10-01T17:19:16;18.83;;;7.00;;
57842;SDS011;43673;51.058;3.734;2022-10-01T17:21:42;16.00;;;6.53;;
57842;SDS011;43673;51.058;3.734;2022-10-01T17:24:08;18.27;;;5.50;;
57842;SDS011;43673;51.058;3.734;2022-10-01T17:26:36;21.63;;;6.50;;
57842;SDS011;43673;51.058;3.734;2022-10-01T17:29:02;23.83;;;5.60;;
57842;SDS011;43673;51.058;3.734;2022-10-01T17:31:30;14.52;;;6.20;;
57842;SDS011;43673;51.058;3.734;2022-10-01T17:34:02;20.67;;;7.07;;
57842;SDS011;43673;51.058;3.734;2022-10-01T17:36:29;22.95;;;6.63;;
57842;SDS011;43673;51.058;3.734;2022-10-01T17:38:55;25.48;;;10.73;;
57842;SDS011;43673;51.058;3.734;2022-10-01T17:41:21;43.30;;;16.10;;
57842;SDS011;43673;51.058;3.734;2022-10-01T17:43:46;31.38;;;12.55;;
57842;SDS011;43673;51.058;3.734;2022-10-01T17:46:12;22.70;;;8.23;;
57842;SDS011;43673;51.058;3.734;2022-10-01T17:48:38;20.80;;;7.50;;
57842;SDS011;43673;51.058;3.734;2022-10-01T17:51:06;17.45;;;5.72;;
57842;SDS011;43673;51.058;3.734;2022-10-01T17:53:33;22.63;;;6.78;;
57842;SDS011;43673;51.058;3.734;2022-10-01T17:56:04;13.10;;;5.50;;
57842;SDS011;43673;51.058;3.734;2022-10-01T17:58:30;22.55;;;5.55;;
57842;SDS011;43673;51.058;3.734;2022-10-01T18:00:56;24.75;;;8.32;;
57842;SDS011;43673;51.058;3.734;2022-10-01T18:03:23;21.90;;;6.95;;
57842;SDS011;43673;51.058;3.734;2022-10-01T18:05:49;23.95;;;9.40;;
57842;SDS011;43673;51.058;3.734;2022-10-01T18:08:15;21.48;;;7.45;;
57842;SDS011;43673;51.058;3.734;2022-10-01T18:10:41;17.90;;;6.72;;
57842;SDS011;43673;51.058;3.734;2022-10-01T18:13:06;20.05;;;6.15;;
57842;SDS011;43673;51.058;3.734;2022-10-01T18:15:32;20.65;;;7.53;;
57842;SDS011;43673;51.058;3.734;2022-10-01T18:17:58;29.13;;;8.63;;
57842;SDS011;43673;51.058;3.734;2022-10-01T18:20:23;19.63;;;6.30;;
57842;SDS011;43673;51.058;3.734;2022-10-01T18:22:49;24.50;;;7.55;;
57842;SDS011;43673;51.058;3.734;2022-10-01T18:25:18;30.70;;;8.18;;
57842;SDS011;43673;51.058;3.734;2022-10-01T18:27:44;31.10;;;9.40;;
57842;SDS011;43673;51.058;3.734;2022-10-01T18:30:14;18.02;;;6.70;;
57842;SDS011;43673;51.058;3.734;2022-10-01T18:32:42;25.75;;;8.05;;
57842;SDS011;43673;51.058;3.734;2022-10-01T18:35:20;32.17;;;8.25;;
57842;SDS011;43673;51.058;3.734;2022-10-01T18:37:57;22.67;;;7.00;;
57842;SDS011;43673;51.058;3.734;2022-10-01T18:40:27;23.95;;;7.13;;
57842;SDS011;43673;51.058;3.734;2022-10-01T18:43:08;22.92;;;7.20;;
57842;SDS011;43673;51.058;3.734;2022-10-01T19:02:19;24.58;;;8.05;;
57842;SDS011;43673;51.058;3.734;2022-10-01T19:07:27;33.42;;;8.90;;
57842;SDS011;43673;51.058;3.734;2022-10-01T19:10:18;36.20;;;8.50;;
57842;SDS011;43673;51.058;3.734;2022-10-01T19:24:06;31.48;;;8.85;;
57842;SDS011;43673;51.058;3.734;2022-10-01T19:34:26;28.05;;;8.90;;
57842;SDS011;43673;51.058;3.734;2022-10-01T19:36:58;23.40;;;7.22;;
57842;SDS011;43673;51.058;3.734;2022-10-01T19:39:51;22.17;;;8.13;;
57842;SDS011;43673;51.058;3.734;2022-10-01T19:42:23;26.52;;;8.30;;
57842;SDS011;43673;51.058;3.734;2022-10-01T19:45:04;29.75;;;8.45;;
57842;SDS011;43673;51.058;3.734;2022-10-01T19:47:53;31.10;;;8.25;;
57842;SDS011;43673;51.058;3.734;2022-10-01T19:50:35;29.33;;;8.63;;
57842;SDS011;43673;51.058;3.734;2022-10-01T19:53:03;24.95;;;6.82;;
57842;SDS011;43673;51.058;3.734;2022-10-01T19:55:57;33.13;;;9.23;;
57842;SDS011;43673;51.058;3.734;2022-10-01T19:58:24;24.77;;;7.60;;
57842;SDS011;43673;51.058;3.734;2022-10-01T20:00:54;30.50;;;9.50;;
57842;SDS011;43673;51.058;3.734;2022-10-01T20:06:37;28.50;;;8.52;;
57842;SDS011;43673;51.058;3.734;2022-10-01T20:09:09;34.40;;;8.45;;
57842;SDS011;43673;51.058;3.734;2022-10-01T20:11:45;30.02;;;9.15;;
57842;SDS011;43673;51.058;3.734;2022-10-01T20:14:46;25.33;;;7.75;;
57842;SDS011;43673;51.058;3.734;2022-10-01T20:17:49;31.63;;;10.52;;
57842;SDS011;43673;51.058;3.734;2022-10-01T20:23:54;29.73;;;8.70;;
57842;SDS011;43673;51.058;3.734;2022-10-01T20:26:36;35.78;;;7.32;;
57842;SDS011;43673;51.058;3.734;2022-10-01T20:31:44;34.63;;;8.95;;
57842;SDS011;43673;51.058;3.734;2022-10-01T20:34:32;31.75;;;8.13;;
57842;SDS011;43673;51.058;3.734;2022-10-01T20:39:35;22.23;;;6.75;;
57842;SDS011;43673;51.058;3.734;2022-10-01T20:42:16;27.65;;;7.45;;
57842;SDS011;43673;51.058;3.734;2022-10-01T20:44:48;30.30;;;7.18;;
57842;SDS011;43673;51.058;3.734;2022-10-01T20:47:18;32.30;;;7.78;;
57842;SDS011;43673;51.058;3.734;2022-10-01T20:50:03;34.65;;;7.93;;
57842;SDS011;43673;51.058;3.734;2022-10-01T20:55:31;33.75;;;8.60;;
57842;SDS011;43673;51.058;3.734;2022-10-01T20:58:05;38.80;;;10.07;;
57842;SDS011;43673;51.058;3.734;2022-10-01T21:00:37;27.23;;;7.22;;
57842;SDS011;43673;51.058;3.734;2022-10-01T21:05:48;31.85;;;6.85;;
57842;SDS011;43673;51.058;3.734;2022-10-01T21:08:36;26.58;;;8.02;;
57842;SDS011;43673;51.058;3.734;2022-10-01T21:11:08;24.50;;;7.40;;
57842;SDS011;43673;51.058;3.734;2022-10-01T21:17:01;36.10;;;6.40;;
57842;SDS011;43673;51.058;3.734;2022-10-01T21:37:38;33.70;;;8.40;;
57842;SDS011;43673;51.058;3.734;2022-10-01T21:46:07;34.58;;;6.88;;
57842;SDS011;43673;51.058;3.734;2022-10-01T22:00:31;32.90;;;8.48;;
57842;SDS011;43673;51.058;3.734;2022-10-01T22:05:58;31.08;;;7.35;;
57842;SDS011;43673;51.058;3.734;2022-10-01T22:11:25;35.17;;;9.00;;
57842;SDS011;43673;51.058;3.734;2022-10-01T22:13:54;36.35;;;8.35;;
57842;SDS011;43673;51.058;3.734;2022-10-01T22:16:23;34.10;;;7.75;;
57842;SDS011;43673;51.058;3.734;2022-10-01T22:18:55;32.23;;;8.07;;
57842;SDS011;43673;51.058;3.734;2022-10-01T22:24:13;31.73;;;9.50;;
57842;SDS011;43673;51.058;3.734;2022-10-01T22:29:31;37.40;;;8.10;;
57842;SDS011;43673;51.058;3.734;2022-10-01T22:32:04;31.83;;;8.25;;
57842;SDS011;43673;51.058;3.734;2022-10-01T22:34:40;38.70;;;7.82;;
57842;SDS011;43673;51.058;3.734;2022-10-01T22:37:12;37.45;;;7.93;;
57842;SDS011;43673;51.058;3.734;2022-10-01T22:39:45;35.30;;;8.50;;
57842;SDS011;43673;51.058;3.734;2022-10-01T22:42:28;39.75;;;7.93;;
57842;SDS011;43673;51.058;3.734;2022-10-01T22:45:13;35.55;;;9.45;;
57842;SDS011;43673;51.058;3.734;2022-10-01T22:48:24;41.10;;;8.63;;
57842;SDS011;43673;51.058;3.734;2022-10-01T22:53:40;28.95;;;7.68;;
57842;SDS011;43673;51.058;3.734;2022-10-01T22:56:26;33.83;;;8.30;;
57842;SDS011;43673;51.058;3.734;2022-10-01T23:02:05;38.20;;;8.15;;
57842;SDS011;43673;51.058;3.734;2022-10-01T23:23:29;31.35;;;8.25;;
57842;SDS011;43673;51.058;3.734;2022-10-01T23:31:33;39.67;;;10.05;;
57842;SDS011;43673;51.058;3.734;2022-10-01T23:47:25;38.75;;;7.93;;
57842;SDS011;43673;51.058;3.734;2022-10-01T23:50:02;36.25;;;8.65;;
57842;SDS011;43673;51.058;3.734;2022-10-01T23:52:31;36.17;;;8.10;;
57842;SDS011;43673;51.058;3.734;2022-10-01T23:58:43;35.92;;;8.00;;
